createdAt,value
2019-03-30T00:00:55.850Z,7.60
2019-03-30T00:03:24.824Z,7.50
2019-03-30T00:05:53.765Z,7.50
2019-03-30T00:08:22.978Z,7.50
2019-03-30T00:10:52.027Z,7.50
2019-03-30T00:13:21.000Z,7.50
2019-03-30T00:15:50.028Z,7.50
2019-03-30T00:18:19.051Z,7.60
2019-03-30T00:20:48.023Z,7.60
2019-03-30T00:23:17.072Z,7.60
2019-03-30T00:25:46.427Z,7.60
2019-03-30T00:28:15.660Z,7.60
2019-03-30T00:30:44.738Z,7.60
2019-03-30T00:33:13.881Z,7.60
2019-03-30T00:35:43.091Z,7.60
2019-03-30T00:38:12.131Z,7.60
2019-03-30T00:40:41.240Z,7.60
2019-03-30T00:43:10.579Z,7.70
2019-03-30T00:45:39.712Z,7.70
2019-03-30T00:48:08.878Z,7.70
2019-03-30T00:50:38.112Z,7.70
2019-03-30T00:53:07.275Z,7.70
2019-03-30T00:55:36.249Z,7.70
2019-03-30T00:58:05.365Z,7.70
2019-03-30T01:00:34.512Z,7.70
2019-03-30T01:03:03.544Z,7.70
2019-03-30T01:05:32.850Z,7.70
2019-03-30T01:08:01.861Z,7.60
2019-03-30T01:10:30.907Z,7.60
2019-03-30T01:12:59.839Z,7.50
2019-03-30T01:15:28.903Z,7.50
2019-03-30T01:17:57.866Z,7.40
2019-03-30T01:20:26.915Z,7.30
2019-03-30T01:22:56.140Z,7.30
2019-03-30T01:25:25.248Z,7.20
2019-03-30T01:27:54.502Z,7.10
2019-03-30T01:30:23.830Z,7.00
2019-03-30T01:32:52.895Z,6.90
2019-03-30T01:35:21.974Z,6.80
2019-03-30T01:37:51.258Z,6.80
2019-03-30T01:40:20.905Z,6.70
2019-03-30T01:45:42.523Z,6.70
2019-03-30T01:48:11.532Z,6.70
2019-03-30T01:50:40.782Z,6.70
2019-03-30T01:53:11.142Z,6.80
2019-03-30T01:55:40.454Z,6.80
2019-03-30T01:58:09.408Z,6.80
2019-03-30T02:00:38.496Z,6.80
2019-03-30T02:03:07.584Z,6.70
2019-03-30T02:05:36.573Z,6.70
2019-03-30T02:08:05.689Z,6.60
2019-03-30T02:10:37.523Z,6.60
2019-03-30T02:13:06.596Z,6.60
2019-03-30T02:15:35.580Z,6.60
2019-03-30T02:18:06.378Z,6.60
2019-03-30T02:20:40.178Z,6.70
2019-03-30T02:23:09.559Z,6.80
2019-03-30T02:25:38.622Z,6.80
2019-03-30T02:28:08.384Z,6.80
2019-03-30T02:30:37.528Z,6.90
2019-03-30T02:33:06.596Z,6.90
2019-03-30T02:35:35.813Z,6.90
2019-03-30T02:38:04.831Z,6.90
2019-03-30T02:40:34.028Z,7.00
2019-03-30T02:43:03.154Z,7.00
2019-03-30T02:45:32.160Z,7.00
2019-03-30T02:48:01.239Z,7.00
2019-03-30T02:50:47.432Z,7.00
2019-03-30T02:53:00.926Z,7.00
2019-03-30T02:55:29.917Z,7.10
2019-03-30T02:57:59.030Z,7.00
2019-03-30T03:00:28.357Z,7.10
2019-03-30T03:02:57.566Z,7.10
2019-03-30T03:05:26.721Z,7.10
2019-03-30T03:07:55.949Z,7.10
2019-03-30T03:10:25.327Z,7.10
2019-03-30T03:12:54.448Z,7.00
2019-03-30T03:15:23.499Z,6.90
2019-03-30T03:17:52.696Z,6.80
2019-03-30T03:20:21.667Z,6.80
2019-03-30T03:22:50.754Z,6.70
2019-03-30T03:25:19.822Z,6.80
2019-03-30T03:27:49.417Z,6.80
2019-03-30T03:30:19.362Z,6.80
2019-03-30T03:32:48.409Z,6.80
2019-03-30T03:35:17.565Z,6.80
2019-03-30T03:37:46.709Z,6.80
2019-03-30T03:40:16.109Z,6.80
2019-03-30T03:42:45.076Z,6.80
2019-03-30T03:45:14.577Z,6.80
2019-03-30T03:47:43.611Z,6.80
2019-03-30T03:50:32.302Z,6.80
2019-03-30T03:53:01.450Z,6.70
2019-03-30T03:55:31.153Z,6.70
2019-03-30T03:58:01.062Z,6.70
2019-03-30T04:00:30.377Z,6.70
2019-03-30T04:03:01.215Z,6.70
2019-03-30T04:05:31.710Z,6.70
2019-03-30T04:08:03.534Z,6.70
2019-03-30T04:10:35.724Z,6.70
2019-03-30T04:13:07.776Z,6.70
2019-03-30T04:15:37.070Z,6.60
2019-03-30T04:18:06.279Z,6.60
2019-03-30T04:20:35.230Z,6.60
2019-03-30T04:23:04.381Z,6.60
2019-03-30T04:25:33.474Z,6.60
2019-03-30T04:28:02.465Z,6.60
2019-03-30T04:30:31.463Z,6.60
2019-03-30T04:33:00.672Z,6.50
2019-03-30T04:35:29.691Z,6.60
2019-03-30T04:37:58.665Z,6.60
2019-03-30T04:40:27.973Z,6.60
2019-03-30T04:42:56.963Z,6.60
2019-03-30T04:45:25.937Z,6.50
2019-03-30T04:47:54.954Z,6.50
2019-03-30T04:50:24.281Z,6.50
2019-03-30T04:52:53.408Z,6.50
2019-03-30T04:55:22.429Z,6.50
2019-03-30T04:57:51.429Z,6.50
2019-03-30T05:00:20.496Z,6.40
2019-03-30T05:02:49.550Z,6.30
2019-03-30T05:05:18.662Z,6.30
2019-03-30T05:07:47.972Z,6.20
2019-03-30T05:10:16.999Z,6.20
2019-03-30T05:12:46.043Z,6.20
2019-03-30T05:15:15.140Z,6.20
2019-03-30T05:17:47.707Z,6.20
2019-03-30T05:20:15.089Z,6.20
2019-03-30T05:22:44.023Z,6.20
2019-03-30T05:25:13.080Z,6.20
2019-03-30T05:27:42.276Z,6.20
2019-03-30T05:30:11.693Z,6.20
2019-03-30T05:32:41.834Z,6.20
2019-03-30T05:35:11.449Z,6.20
2019-03-30T05:37:40.571Z,6.20
2019-03-30T05:40:09.913Z,6.10
2019-03-30T05:42:38.852Z,6.10
2019-03-30T05:45:08.218Z,6.00
2019-03-30T05:47:37.255Z,5.90
2019-03-30T05:50:08.184Z,5.90
2019-03-30T05:52:37.212Z,5.80
2019-03-30T05:55:06.566Z,5.80
2019-03-30T05:57:35.971Z,5.80
2019-03-30T06:00:07.630Z,5.80
2019-03-30T06:02:36.656Z,5.80
2019-03-30T06:05:06.069Z,5.80
2019-03-30T06:07:35.093Z,5.80
2019-03-30T06:10:05.908Z,5.90
2019-03-30T06:12:34.853Z,5.90
2019-03-30T06:15:05.694Z,5.90
2019-03-30T06:17:34.828Z,5.90
2019-03-30T06:20:05.849Z,5.90
2019-03-30T06:22:40.664Z,6.00
2019-03-30T06:25:05.624Z,6.10
2019-03-30T06:27:34.656Z,6.20
2019-03-30T06:30:21.396Z,6.20
2019-03-30T06:32:50.440Z,6.20
2019-03-30T06:35:19.476Z,6.30
2019-03-30T06:37:48.598Z,6.40
2019-03-30T06:40:17.907Z,6.40
2019-03-30T06:42:47.091Z,6.50
2019-03-30T06:45:16.409Z,6.50
2019-03-30T06:47:45.504Z,6.50
2019-03-30T06:50:14.987Z,6.60
2019-03-30T06:52:56.710Z,6.70
2019-03-30T06:55:15.072Z,6.80
2019-03-30T06:57:44.054Z,6.80
2019-03-30T07:00:14.042Z,7.00
2019-03-30T07:02:43.461Z,7.10
2019-03-30T07:05:12.787Z,7.20
2019-03-30T07:07:44.977Z,7.30
2019-03-30T07:10:14.757Z,7.40
2019-03-30T07:12:43.831Z,7.50
2019-03-30T07:15:12.933Z,7.60
2019-03-30T07:17:45.355Z,7.70
2019-03-30T07:20:17.420Z,7.80
2019-03-30T07:22:46.549Z,8.00
2019-03-30T07:25:16.174Z,8.10
2019-03-30T07:27:45.323Z,8.20
2019-03-30T07:30:14.586Z,8.30
2019-03-30T07:32:43.781Z,8.40
2019-03-30T07:35:13.196Z,8.50
2019-03-30T07:37:42.269Z,8.70
2019-03-30T07:40:11.481Z,8.80
2019-03-30T07:42:40.632Z,8.90
2019-03-30T07:45:10.141Z,9.00
2019-03-30T07:47:39.185Z,9.10
2019-03-30T07:50:08.929Z,9.20
2019-03-30T07:52:38.072Z,9.40
2019-03-30T07:55:07.383Z,9.50
2019-03-30T07:57:36.511Z,9.60
2019-03-30T08:00:09.432Z,9.70
2019-03-30T08:02:38.397Z,9.90
2019-03-30T08:05:07.684Z,10.00
2019-03-30T08:07:36.725Z,10.10
2019-03-30T08:10:06.511Z,10.30
2019-03-30T08:12:35.621Z,10.40
2019-03-30T08:15:07.525Z,10.50
2019-03-30T08:17:36.939Z,10.60
2019-03-30T08:20:07.282Z,10.60
2019-03-30T08:22:36.733Z,10.70
2019-03-30T08:25:07.177Z,10.70
2019-03-30T08:27:36.325Z,10.70
2019-03-30T08:30:06.648Z,10.70
2019-03-30T08:32:35.741Z,10.70
2019-03-30T08:35:06.549Z,10.70
2019-03-30T08:37:35.609Z,10.70
2019-03-30T08:40:05.478Z,10.80
2019-03-30T08:42:34.922Z,10.90
2019-03-30T08:45:05.772Z,10.90
2019-03-30T08:47:34.891Z,11.00
2019-03-30T08:50:06.282Z,11.10
2019-03-30T08:52:35.695Z,11.20
2019-03-30T08:55:06.548Z,11.30
2019-03-30T08:57:35.760Z,11.40
2019-03-30T09:00:06.091Z,11.50
2019-03-30T09:02:35.197Z,11.60
2019-03-30T09:05:06.566Z,11.70
2019-03-30T09:07:35.563Z,11.70
2019-03-30T09:10:07.281Z,11.90
2019-03-30T09:12:36.313Z,12.00
2019-03-30T09:15:07.031Z,12.10
2019-03-30T09:17:37.377Z,12.20
2019-03-30T09:20:08.430Z,12.20
2019-03-30T09:22:37.772Z,12.30
2019-03-30T09:25:07.893Z,12.40
2019-03-30T09:27:37.057Z,12.40
2019-03-30T09:30:08.672Z,12.50
2019-03-30T09:32:37.722Z,12.60
2019-03-30T09:35:08.701Z,12.60
2019-03-30T09:37:37.964Z,12.70
2019-03-30T09:40:10.278Z,12.80
2019-03-30T09:42:39.385Z,12.80
2019-03-30T09:45:09.321Z,12.80
2019-03-30T09:47:38.750Z,12.90
2019-03-30T09:50:08.566Z,12.90
2019-03-30T09:52:37.737Z,13.00
2019-03-30T09:55:07.944Z,12.90
2019-03-30T09:57:37.026Z,13.00
2019-03-30T10:00:07.240Z,13.00
2019-03-30T10:02:36.637Z,13.00
2019-03-30T10:05:06.731Z,13.00
2019-03-30T10:07:36.079Z,13.00
2019-03-30T10:10:06.613Z,13.10
2019-03-30T10:12:35.788Z,13.10
2019-03-30T10:15:06.735Z,13.20
2019-03-30T10:17:35.811Z,13.20
2019-03-30T10:20:08.355Z,13.20
2019-03-30T10:22:38.154Z,13.20
2019-03-30T10:25:07.761Z,13.30
2019-03-30T10:27:36.935Z,13.40
2019-03-30T10:30:08.255Z,13.50
2019-03-30T10:32:37.425Z,13.60
2019-03-30T10:35:07.479Z,13.70
2019-03-30T10:37:36.785Z,13.80
2019-03-30T10:40:07.940Z,13.80
2019-03-30T10:42:37.218Z,13.90
2019-03-30T10:45:10.382Z,14.00
2019-03-30T10:47:39.530Z,14.10
2019-03-30T10:50:08.904Z,14.10
2019-03-30T10:52:38.094Z,14.10
2019-03-30T10:55:08.287Z,14.10
2019-03-30T10:57:37.440Z,14.10
2019-03-30T11:00:08.768Z,14.10
2019-03-30T11:02:38.837Z,14.20
2019-03-30T11:05:08.723Z,14.20
2019-03-30T11:07:37.831Z,14.30
2019-03-30T11:10:08.006Z,14.40
2019-03-30T11:12:37.092Z,14.50
2019-03-30T11:15:07.024Z,14.50
2019-03-30T11:17:36.154Z,14.50
2019-03-30T11:20:05.458Z,14.60
2019-03-30T11:22:34.545Z,14.70
2019-03-30T11:25:07.760Z,14.80
2019-03-30T11:27:34.636Z,14.80
2019-03-30T11:30:05.058Z,14.90
2019-03-30T11:32:34.370Z,15.00
2019-03-30T11:35:04.211Z,15.10
2019-03-30T11:37:33.253Z,15.20
2019-03-30T11:40:02.272Z,15.30
2019-03-30T11:42:31.321Z,15.40
2019-03-30T11:45:00.436Z,15.50
2019-03-30T11:47:31.961Z,15.60
2019-03-30T11:50:01.336Z,15.80
2019-03-30T11:52:30.721Z,15.80
2019-03-30T11:55:01.267Z,15.90
2019-03-30T11:57:30.538Z,16.00
2019-03-30T11:59:59.506Z,16.10
2019-03-30T12:02:28.818Z,16.10
2019-03-30T12:04:57.999Z,16.20
2019-03-30T12:07:27.242Z,16.10
2019-03-30T12:09:56.472Z,16.10
2019-03-30T12:12:25.652Z,16.10
2019-03-30T12:14:54.805Z,16.00
2019-03-30T12:17:24.908Z,16.10
2019-03-30T12:19:54.055Z,16.10
2019-03-30T12:22:23.073Z,16.20
2019-03-30T12:24:52.125Z,16.30
2019-03-30T12:27:21.093Z,16.30
2019-03-30T12:29:50.137Z,16.40
2019-03-30T12:32:19.385Z,16.40
2019-03-30T12:34:48.784Z,16.50
2019-03-30T12:37:18.166Z,16.50
2019-03-30T12:39:47.203Z,16.60
2019-03-30T12:42:16.309Z,16.60
2019-03-30T12:44:45.312Z,16.70
2019-03-30T12:47:14.861Z,16.70
2019-03-30T12:49:45.346Z,16.80
2019-03-30T12:52:14.659Z,16.80
2019-03-30T12:54:43.685Z,16.80
2019-03-30T12:57:12.648Z,16.80
2019-03-30T12:59:41.993Z,16.90
2019-03-30T13:02:11.086Z,17.00
2019-03-30T13:04:40.349Z,17.00
2019-03-30T13:07:09.549Z,17.10
2019-03-30T13:09:38.643Z,17.20
2019-03-30T13:12:07.664Z,17.20
2019-03-30T13:14:36.672Z,17.10
2019-03-30T13:17:05.636Z,17.10
2019-03-30T13:19:34.725Z,17.20
2019-03-30T13:22:03.848Z,17.30
2019-03-30T13:24:32.840Z,17.30
2019-03-30T13:27:02.122Z,17.30
2019-03-30T13:29:31.165Z,17.30
2019-03-30T13:32:00.448Z,17.30
2019-03-30T13:34:29.623Z,17.40
2019-03-30T13:36:58.650Z,17.40
2019-03-30T13:39:27.714Z,17.40
2019-03-30T13:41:56.832Z,17.40
2019-03-30T13:44:26.001Z,17.50
2019-03-30T13:46:54.970Z,17.50
2019-03-30T13:49:24.035Z,17.50
2019-03-30T13:51:53.023Z,17.50
2019-03-30T13:54:22.081Z,17.50
2019-03-30T13:56:51.096Z,17.50
2019-03-30T13:59:20.251Z,17.60
2019-03-30T14:01:49.651Z,17.60
2019-03-30T14:04:18.778Z,17.70
2019-03-30T14:06:48.011Z,17.70
2019-03-30T14:09:17.072Z,17.70
2019-03-30T14:11:46.236Z,17.80
2019-03-30T14:14:15.208Z,17.80
2019-03-30T14:16:44.396Z,17.80
2019-03-30T14:19:13.474Z,17.90
2019-03-30T14:21:42.825Z,17.90
2019-03-30T14:24:11.782Z,18.00
2019-03-30T14:26:40.779Z,18.00
2019-03-30T14:29:09.925Z,18.00
2019-03-30T14:31:39.107Z,18.00
2019-03-30T14:34:08.423Z,18.00
2019-03-30T14:36:37.705Z,18.00
2019-03-30T14:39:07.354Z,18.00
2019-03-30T14:41:36.838Z,18.00
2019-03-30T14:44:06.006Z,18.00
2019-03-30T14:46:35.142Z,18.00
2019-03-30T14:49:04.897Z,18.00
2019-03-30T14:51:33.969Z,18.00
2019-03-30T14:54:03.079Z,18.00
2019-03-30T14:56:44.781Z,18.00
2019-03-30T14:59:09.892Z,17.90
2019-03-30T15:01:33.738Z,18.00
2019-03-30T15:04:03.128Z,18.00
2019-03-30T15:06:32.149Z,18.00
2019-03-30T15:09:01.291Z,18.00
2019-03-30T15:11:30.462Z,18.00
2019-03-30T15:13:59.527Z,18.00
2019-03-30T15:16:28.730Z,18.00
2019-03-30T15:18:58.058Z,18.00
2019-03-30T15:21:27.140Z,18.00
2019-03-30T15:23:56.500Z,18.10
2019-03-30T15:26:25.530Z,18.10
2019-03-30T15:28:56.095Z,18.10
2019-03-30T15:31:25.470Z,18.20
2019-03-30T15:33:55.546Z,18.20
2019-03-30T15:36:24.753Z,18.30
2019-03-30T15:38:54.389Z,18.30
2019-03-30T15:41:23.394Z,18.30
2019-03-30T15:43:52.602Z,18.30
2019-03-30T15:46:21.762Z,18.40
2019-03-30T15:48:51.035Z,18.40
2019-03-30T15:51:20.080Z,18.50
2019-03-30T15:53:49.290Z,18.50
2019-03-30T15:56:18.445Z,18.50
2019-03-30T15:58:47.527Z,18.60
2019-03-30T16:01:16.634Z,18.70
2019-03-30T16:03:45.802Z,18.70
2019-03-30T16:06:15.009Z,18.80
2019-03-30T16:08:44.485Z,18.80
2019-03-30T16:11:14.154Z,18.90
2019-03-30T16:13:43.176Z,19.00
2019-03-30T16:16:12.350Z,19.00
2019-03-30T16:18:41.735Z,19.10
2019-03-30T16:21:10.971Z,19.20
2019-03-30T16:23:39.969Z,19.20
2019-03-30T16:26:09.413Z,19.20
2019-03-30T16:28:38.478Z,19.30
2019-03-30T16:31:07.564Z,19.30
2019-03-30T16:33:36.878Z,19.30
2019-03-30T16:36:06.059Z,19.30
2019-03-30T16:38:35.352Z,19.30
2019-03-30T16:41:04.606Z,19.30
2019-03-30T16:43:33.574Z,19.30
2019-03-30T16:46:02.780Z,19.20
2019-03-30T16:48:31.948Z,19.20
2019-03-30T16:51:01.076Z,19.10
2019-03-30T16:53:30.339Z,19.00
2019-03-30T16:55:59.462Z,19.00
2019-03-30T16:58:29.098Z,18.90
2019-03-30T17:00:58.335Z,18.80
2019-03-30T17:03:27.634Z,18.70
2019-03-30T17:05:56.908Z,18.60
2019-03-30T17:08:26.069Z,18.50
2019-03-30T17:10:55.314Z,18.40
2019-03-30T17:13:24.498Z,18.20
2019-03-30T17:15:53.702Z,18.10
2019-03-30T17:18:22.921Z,18.00
2019-03-30T17:20:52.071Z,17.90
2019-03-30T17:23:21.183Z,17.80
2019-03-30T17:25:50.446Z,17.70
2019-03-30T17:28:19.679Z,17.60
2019-03-30T17:30:48.727Z,17.50
2019-03-30T17:33:17.921Z,17.40
2019-03-30T17:35:47.167Z,17.30
2019-03-30T17:38:29.523Z,17.10
2019-03-30T17:40:58.639Z,17.00
2019-03-30T17:43:27.973Z,16.90
2019-03-30T17:45:57.101Z,16.70
2019-03-30T17:48:26.400Z,16.60
2019-03-30T17:50:58.138Z,16.50
2019-03-30T17:53:26.383Z,16.30
2019-03-30T17:55:55.470Z,16.20
2019-03-30T17:58:24.756Z,16.10
2019-03-30T18:00:54.115Z,16.00
2019-03-30T18:03:24.415Z,16.00
2019-03-30T18:05:53.875Z,15.80
2019-03-30T18:08:24.628Z,15.70
2019-03-30T18:10:53.689Z,15.60
2019-03-30T18:13:22.858Z,15.50
2019-03-30T18:15:52.221Z,15.40
2019-03-30T18:18:21.275Z,15.20
2019-03-30T18:20:50.640Z,15.10
2019-03-30T18:23:19.908Z,15.00
2019-03-30T18:25:49.112Z,14.80
2019-03-30T18:28:27.183Z,14.70
2019-03-30T18:30:49.386Z,14.60
2019-03-30T18:33:18.759Z,14.50
2019-03-30T18:35:49.008Z,14.30
2019-03-30T18:38:19.356Z,14.20
2019-03-30T18:40:48.751Z,14.10
2019-03-30T18:43:18.658Z,14.00
2019-03-30T18:45:48.036Z,13.90
2019-03-30T18:48:18.367Z,13.80
2019-03-30T18:50:47.843Z,13.70
2019-03-30T18:53:17.580Z,13.60
2019-03-30T18:55:47.082Z,13.50
2019-03-30T18:58:16.553Z,13.40
2019-03-30T19:00:45.650Z,13.30
2019-03-30T19:03:14.892Z,13.20
2019-03-30T19:05:44.001Z,13.10
2019-03-30T19:08:13.237Z,13.00
2019-03-30T19:10:42.380Z,13.00
2019-03-30T19:13:11.865Z,12.90
2019-03-30T19:15:41.009Z,12.80
2019-03-30T19:18:11.404Z,12.80
2019-03-30T19:20:40.730Z,12.70
2019-03-30T19:23:10.082Z,12.60
2019-03-30T19:25:39.637Z,12.50
2019-03-30T19:28:09.027Z,12.50
2019-03-30T19:30:40.537Z,12.40
2019-03-30T19:33:09.275Z,12.30
2019-03-30T19:35:38.640Z,12.30
2019-03-30T19:38:10.818Z,12.20
2019-03-30T19:40:38.945Z,12.20
2019-03-30T19:43:08.279Z,12.10
2019-03-30T19:45:37.481Z,12.00
2019-03-30T19:48:06.972Z,12.00
2019-03-30T19:50:36.395Z,11.90
2019-03-30T19:53:05.677Z,11.80
2019-03-30T19:55:35.066Z,11.80
2019-03-30T19:58:04.834Z,11.70
2019-03-30T20:00:34.240Z,11.70
2019-03-30T20:03:03.771Z,11.70
2019-03-30T20:05:33.252Z,11.60
2019-03-30T20:08:12.000Z,11.60
2019-03-30T20:10:33.980Z,11.60
2019-03-30T20:13:03.151Z,11.50
2019-03-30T20:15:32.487Z,11.50
2019-03-30T20:18:01.968Z,11.50
2019-03-30T20:20:31.482Z,11.40
2019-03-30T20:23:00.544Z,11.40
2019-03-30T20:25:29.747Z,11.40
2019-03-30T20:27:59.108Z,11.30
2019-03-30T20:30:28.285Z,11.30
2019-03-30T20:32:57.442Z,11.20
2019-03-30T20:35:26.989Z,11.20
2019-03-30T20:37:56.416Z,11.10
2019-03-30T20:40:25.680Z,11.10
2019-03-30T20:42:55.137Z,11.00
2019-03-30T20:45:24.148Z,11.00
2019-03-30T20:47:53.354Z,10.90
2019-03-30T20:50:22.922Z,10.90
2019-03-30T20:52:52.215Z,10.90
2019-03-30T20:55:21.695Z,10.80
2019-03-30T20:57:50.913Z,10.80
2019-03-30T21:00:20.775Z,10.70
2019-03-30T21:02:49.944Z,10.70
2019-03-30T21:05:19.100Z,10.60
2019-03-30T21:07:48.460Z,10.60
2019-03-30T21:10:18.181Z,10.50
2019-03-30T21:12:47.325Z,10.50
2019-03-30T21:15:16.684Z,10.40
2019-03-30T21:17:45.727Z,10.40
2019-03-30T21:20:15.168Z,10.30
2019-03-30T21:22:44.402Z,10.30
2019-03-30T21:25:13.548Z,10.30
2019-03-30T21:27:42.972Z,10.20
2019-03-30T21:30:13.647Z,10.20
2019-03-30T21:32:42.724Z,10.20
2019-03-30T21:35:12.646Z,10.20
2019-03-30T21:37:41.939Z,10.20
2019-03-30T21:40:11.305Z,10.20
2019-03-30T21:42:40.298Z,10.10
2019-03-30T21:45:10.241Z,10.10
2019-03-30T21:47:39.451Z,10.00
2019-03-30T21:50:09.209Z,10.00
2019-03-30T21:52:38.279Z,10.00
2019-03-30T21:55:08.113Z,10.00
2019-03-30T21:57:37.167Z,9.90
2019-03-30T22:00:11.046Z,9.90
2019-03-30T22:02:39.409Z,9.80
2019-03-30T22:05:09.208Z,9.80
2019-03-30T22:07:38.343Z,9.80
2019-03-30T22:10:08.752Z,9.80
2019-03-30T22:12:40.882Z,9.80
2019-03-30T22:15:10.081Z,9.70
2019-03-30T22:17:39.299Z,9.70
2019-03-30T22:20:08.629Z,9.70
2019-03-30T22:22:37.681Z,9.60
2019-03-30T22:25:07.440Z,9.60
2019-03-30T22:27:36.860Z,9.60
2019-03-30T22:30:07.763Z,9.60
2019-03-30T22:32:36.878Z,9.60
2019-03-30T22:35:06.142Z,9.50
2019-03-30T22:37:35.189Z,9.50
2019-03-30T22:40:07.907Z,9.40
2019-03-30T22:42:37.176Z,9.50
2019-03-30T22:45:07.169Z,9.40
2019-03-30T22:47:37.056Z,9.40
2019-03-30T22:50:07.960Z,9.40
2019-03-30T22:52:37.258Z,9.40
2019-03-30T22:55:07.064Z,9.40
2019-03-30T22:57:36.176Z,9.40
2019-03-30T23:00:10.908Z,9.30
2019-03-30T23:02:40.407Z,9.30
2019-03-30T23:05:10.077Z,9.30
2019-03-30T23:07:39.184Z,9.30
2019-03-30T23:10:08.607Z,9.20
2019-03-30T23:12:37.867Z,9.30
2019-03-30T23:15:07.325Z,9.20
2019-03-30T23:17:36.321Z,9.20
2019-03-30T23:20:07.094Z,9.20
2019-03-30T23:22:36.277Z,9.20
2019-03-30T23:25:07.281Z,9.20
2019-03-30T23:27:36.243Z,9.20
2019-03-30T23:30:07.274Z,9.10
2019-03-30T23:32:36.374Z,9.10
2019-03-30T23:35:06.285Z,9.10
2019-03-30T23:37:35.386Z,9.10
2019-03-30T23:40:06.029Z,9.00
2019-03-30T23:42:35.384Z,9.00
2019-03-30T23:45:05.579Z,9.00
2019-03-30T23:47:34.601Z,8.90
2019-03-30T23:50:04.558Z,8.90
2019-03-30T23:52:33.792Z,8.80
2019-03-30T23:55:03.017Z,8.80
2019-03-30T23:57:32.228Z,8.80
